sensor_id;sensor_type;location;lat;lon;timestamp;P1;durP1;ratioP1;P2;durP2;ratioP2
31238;SDS011;17871;31.584;74.450;2023-06-04T00:17:15;157.20;;;64.47;;
31238;SDS011;17871;31.584;74.450;2023-06-04T00:19:44;169.40;;;71.70;;
31238;SDS011;17871;31.584;74.450;2023-06-04T00:22:13;152.98;;;69.57;;
31238;SDS011;17871;31.584;74.450;2023-06-04T00:24:43;173.73;;;73.15;;
31238;SDS011;17871;31.584;74.450;2023-06-04T00:27:12;173.63;;;70.60;;
31238;SDS011;17871;31.584;74.450;2023-06-04T00:29:42;163.93;;;68.50;;
31238;SDS011;17871;31.584;74.450;2023-06-04T00:32:11;144.80;;;63.45;;
31238;SDS011;17871;31.584;74.450;2023-06-04T00:34:41;130.52;;;54.05;;
31238;SDS011;17871;31.584;74.450;2023-06-04T00:37:10;99.82;;;46.47;;
31238;SDS011;17871;31.584;74.450;2023-06-04T00:39:40;87.60;;;41.88;;
31238;SDS011;17871;31.584;74.450;2023-06-04T00:42:09;88.85;;;42.50;;
31238;SDS011;17871;31.584;74.450;2023-06-04T00:44:38;84.50;;;37.75;;
31238;SDS011;17871;31.584;74.450;2023-06-04T00:47:15;65.47;;;34.50;;
31238;SDS011;17871;31.584;74.450;2023-06-04T00:49:47;75.90;;;33.60;;
31238;SDS011;17871;31.584;74.450;2023-06-04T00:52:16;64.68;;;30.23;;
31238;SDS011;17871;31.584;74.450;2023-06-04T00:54:46;65.07;;;27.25;;
31238;SDS011;17871;31.584;74.450;2023-06-04T00:57:16;49.47;;;25.90;;
31238;SDS011;17871;31.584;74.450;2023-06-04T00:59:45;69.88;;;29.63;;
31238;SDS011;17871;31.584;74.450;2023-06-04T01:02:18;61.47;;;27.17;;
31238;SDS011;17871;31.584;74.450;2023-06-04T01:07:53;53.65;;;26.40;;
31238;SDS011;17871;31.584;74.450;2023-06-04T01:10:24;55.88;;;25.95;;
31238;SDS011;17871;31.584;74.450;2023-06-04T01:12:53;49.97;;;28.13;;
31238;SDS011;17871;31.584;74.450;2023-06-04T01:15:23;58.47;;;27.30;;
31238;SDS011;17871;31.584;74.450;2023-06-04T01:17:53;61.58;;;30.13;;
31238;SDS011;17871;31.584;74.450;2023-06-04T01:20:49;55.03;;;29.30;;
31238;SDS011;17871;31.584;74.450;2023-06-04T01:26:11;57.03;;;27.70;;
31238;SDS011;17871;31.584;74.450;2023-06-04T01:28:45;51.63;;;27.33;;
31238;SDS011;17871;31.584;74.450;2023-06-04T01:31:15;52.47;;;26.95;;
31238;SDS011;17871;31.584;74.450;2023-06-04T01:33:45;60.75;;;26.42;;
31238;SDS011;17871;31.584;74.450;2023-06-04T01:36:14;49.97;;;27.67;;
31238;SDS011;17871;31.584;74.450;2023-06-04T01:38:43;46.00;;;24.85;;
31238;SDS011;17871;31.584;74.450;2023-06-04T01:41:13;61.15;;;24.15;;
31238;SDS011;17871;31.584;74.450;2023-06-04T01:43:42;42.67;;;23.88;;
31238;SDS011;17871;31.584;74.450;2023-06-04T01:46:11;48.80;;;25.40;;
31238;SDS011;17871;31.584;74.450;2023-06-04T01:48:47;39.15;;;21.98;;
31238;SDS011;17871;31.584;74.450;2023-06-04T01:51:20;41.30;;;22.70;;
31238;SDS011;17871;31.584;74.450;2023-06-04T01:53:50;35.38;;;21.80;;
31238;SDS011;17871;31.584;74.450;2023-06-04T01:56:19;43.75;;;21.27;;
31238;SDS011;17871;31.584;74.450;2023-06-04T01:58:49;34.08;;;21.05;;
31238;SDS011;17871;31.584;74.450;2023-06-04T02:01:18;42.17;;;21.35;;
31238;SDS011;17871;31.584;74.450;2023-06-04T02:03:48;39.05;;;20.13;;
31238;SDS011;17871;31.584;74.450;2023-06-04T02:06:17;35.97;;;19.92;;
31238;SDS011;17871;31.584;74.450;2023-06-04T02:08:46;45.28;;;20.45;;
31238;SDS011;17871;31.584;74.450;2023-06-04T02:11:16;44.00;;;20.30;;
31238;SDS011;17871;31.584;74.450;2023-06-04T02:13:45;42.63;;;20.42;;
31238;SDS011;17871;31.584;74.450;2023-06-04T02:16:14;39.65;;;19.50;;
31238;SDS011;17871;31.584;74.450;2023-06-04T02:18:43;51.10;;;18.88;;
31238;SDS011;17871;31.584;74.450;2023-06-04T02:21:13;45.35;;;21.38;;
31238;SDS011;17871;31.584;74.450;2023-06-04T02:23:43;45.65;;;21.38;;
31238;SDS011;17871;31.584;74.450;2023-06-04T02:26:12;38.30;;;19.30;;
31238;SDS011;17871;31.584;74.450;2023-06-04T02:28:41;42.63;;;20.65;;
31238;SDS011;17871;31.584;74.450;2023-06-04T02:31:17;49.65;;;19.90;;
31238;SDS011;17871;31.584;74.450;2023-06-04T02:33:46;51.17;;;20.50;;
31238;SDS011;17871;31.584;74.450;2023-06-04T02:36:15;50.10;;;21.38;;
31238;SDS011;17871;31.584;74.450;2023-06-04T02:38:45;45.50;;;24.17;;
31238;SDS011;17871;31.584;74.450;2023-06-04T02:41:15;41.35;;;20.05;;
31238;SDS011;17871;31.584;74.450;2023-06-04T02:43:47;36.63;;;21.20;;
31238;SDS011;17871;31.584;74.450;2023-06-04T02:46:16;36.50;;;21.25;;
31238;SDS011;17871;31.584;74.450;2023-06-04T02:48:45;57.15;;;27.17;;
31238;SDS011;17871;31.584;74.450;2023-06-04T02:51:19;41.83;;;23.30;;
31238;SDS011;17871;31.584;74.450;2023-06-04T02:53:48;54.03;;;24.65;;
31238;SDS011;17871;31.584;74.450;2023-06-04T02:56:18;55.30;;;25.75;;
31238;SDS011;17871;31.584;74.450;2023-06-04T02:58:50;53.67;;;27.63;;
31238;SDS011;17871;31.584;74.450;2023-06-04T03:01:21;56.55;;;26.80;;
31238;SDS011;17871;31.584;74.450;2023-06-04T03:03:52;56.35;;;25.60;;
31238;SDS011;17871;31.584;74.450;2023-06-04T03:06:23;50.80;;;27.30;;
31238;SDS011;17871;31.584;74.450;2023-06-04T03:08:54;102.18;;;33.78;;
31238;SDS011;17871;31.584;74.450;2023-06-04T03:11:23;88.80;;;30.55;;
31238;SDS011;17871;31.584;74.450;2023-06-04T03:13:55;56.97;;;25.90;;
31238;SDS011;17871;31.584;74.450;2023-06-04T03:16:26;61.65;;;26.08;;
31238;SDS011;17871;31.584;74.450;2023-06-04T03:19:05;67.32;;;29.85;;
31238;SDS011;17871;31.584;74.450;2023-06-04T03:21:34;66.72;;;31.77;;
31238;SDS011;17871;31.584;74.450;2023-06-04T03:27:13;67.40;;;34.47;;
31238;SDS011;17871;31.584;74.450;2023-06-04T03:29:42;77.10;;;35.10;;
31238;SDS011;17871;31.584;74.450;2023-06-04T03:32:14;88.85;;;36.70;;
31238;SDS011;17871;31.584;74.450;2023-06-04T03:34:46;77.88;;;37.58;;
31238;SDS011;17871;31.584;74.450;2023-06-04T03:37:17;77.25;;;39.20;;
31238;SDS011;17871;31.584;74.450;2023-06-04T03:39:46;148.93;;;43.92;;
31238;SDS011;17871;31.584;74.450;2023-06-04T03:42:17;88.88;;;40.08;;
31238;SDS011;17871;31.584;74.450;2023-06-04T03:44:48;87.97;;;39.05;;
31238;SDS011;17871;31.584;74.450;2023-06-04T03:47:17;83.88;;;37.15;;
31238;SDS011;17871;31.584;74.450;2023-06-04T03:49:46;99.47;;;39.47;;
31238;SDS011;17871;31.584;74.450;2023-06-04T03:52:16;99.15;;;37.25;;
31238;SDS011;17871;31.584;74.450;2023-06-04T03:54:48;67.88;;;33.00;;
31238;SDS011;17871;31.584;74.450;2023-06-04T03:57:17;73.20;;;35.40;;
31238;SDS011;17871;31.584;74.450;2023-06-04T03:59:47;77.63;;;32.40;;
31238;SDS011;17871;31.584;74.450;2023-06-04T04:02:18;75.78;;;31.63;;
31238;SDS011;17871;31.584;74.450;2023-06-04T04:04:49;64.47;;;29.63;;
31238;SDS011;17871;31.584;74.450;2023-06-04T04:07:18;66.30;;;29.83;;
31238;SDS011;17871;31.584;74.450;2023-06-04T04:09:51;47.90;;;23.20;;
31238;SDS011;17871;31.584;74.450;2023-06-04T04:12:20;57.30;;;23.63;;
31238;SDS011;17871;31.584;74.450;2023-06-04T04:14:50;51.60;;;21.33;;
31238;SDS011;17871;31.584;74.450;2023-06-04T04:17:19;39.75;;;20.73;;
31238;SDS011;17871;31.584;74.450;2023-06-04T04:19:48;53.55;;;24.98;;
31238;SDS011;17871;31.584;74.450;2023-06-04T04:22:17;49.80;;;22.77;;
31238;SDS011;17871;31.584;74.450;2023-06-04T04:24:47;54.90;;;23.48;;
31238;SDS011;17871;31.584;74.450;2023-06-04T04:27:17;44.60;;;18.88;;
31238;SDS011;17871;31.584;74.450;2023-06-04T04:29:58;56.07;;;24.63;;
31238;SDS011;17871;31.584;74.450;2023-06-04T04:32:30;65.40;;;26.58;;
31238;SDS011;17871;31.584;74.450;2023-06-04T04:35:00;58.63;;;23.75;;
31238;SDS011;17871;31.584;74.450;2023-06-04T04:37:34;61.22;;;22.05;;
31238;SDS011;17871;31.584;74.450;2023-06-04T04:40:08;49.08;;;20.45;;
31238;SDS011;17871;31.584;74.450;2023-06-04T04:42:44;48.80;;;17.88;;
31238;SDS011;17871;31.584;74.450;2023-06-04T04:45:14;44.47;;;19.83;;
31238;SDS011;17871;31.584;74.450;2023-06-04T04:47:47;44.90;;;18.25;;
31238;SDS011;17871;31.584;74.450;2023-06-04T04:50:19;37.17;;;18.00;;
31238;SDS011;17871;31.584;74.450;2023-06-04T04:52:49;43.92;;;20.85;;
31238;SDS011;17871;31.584;74.450;2023-06-04T04:55:19;44.70;;;16.90;;
31238;SDS011;17871;31.584;74.450;2023-06-04T04:57:50;38.85;;;15.30;;
31238;SDS011;17871;31.584;74.450;2023-06-04T05:00:22;34.03;;;13.10;;
31238;SDS011;17871;31.584;74.450;2023-06-04T05:02:54;52.65;;;18.15;;
31238;SDS011;17871;31.584;74.450;2023-06-04T05:05:24;32.55;;;13.82;;
31238;SDS011;17871;31.584;74.450;2023-06-04T05:07:53;52.03;;;14.43;;
31238;SDS011;17871;31.584;74.450;2023-06-04T05:10:29;40.60;;;13.13;;
31238;SDS011;17871;31.584;74.450;2023-06-04T05:12:59;30.02;;;14.02;;
31238;SDS011;17871;31.584;74.450;2023-06-04T05:15:41;35.70;;;15.57;;
31238;SDS011;17871;31.584;74.450;2023-06-04T05:18:14;28.77;;;12.82;;
31238;SDS011;17871;31.584;74.450;2023-06-04T05:20:49;29.08;;;9.25;;
31238;SDS011;17871;31.584;74.450;2023-06-04T05:23:21;29.45;;;12.65;;
31238;SDS011;17871;31.584;74.450;2023-06-04T05:25:51;25.15;;;9.32;;
31238;SDS011;17871;31.584;74.450;2023-06-04T05:28:20;22.60;;;9.05;;
31238;SDS011;17871;31.584;74.450;2023-06-04T05:30:54;35.28;;;12.52;;
31238;SDS011;17871;31.584;74.450;2023-06-04T05:33:33;29.52;;;14.52;;
31238;SDS011;17871;31.584;74.450;2023-06-04T05:36:07;34.28;;;13.50;;
31238;SDS011;17871;31.584;74.450;2023-06-04T05:38:44;30.35;;;11.45;;
31238;SDS011;17871;31.584;74.450;2023-06-04T05:41:16;24.45;;;8.85;;
31238;SDS011;17871;31.584;74.450;2023-06-04T05:43:45;39.33;;;9.00;;
31238;SDS011;17871;31.584;74.450;2023-06-04T05:46:16;32.28;;;8.77;;
31238;SDS011;17871;31.584;74.450;2023-06-04T05:48:45;34.25;;;7.80;;
31238;SDS011;17871;31.584;74.450;2023-06-04T05:51:15;48.05;;;11.32;;
31238;SDS011;17871;31.584;74.450;2023-06-04T05:53:45;14.05;;;7.78;;
31238;SDS011;17871;31.584;74.450;2023-06-04T05:56:16;25.03;;;9.53;;
31238;SDS011;17871;31.584;74.450;2023-06-04T05:58:50;32.63;;;9.50;;
31238;SDS011;17871;31.584;74.450;2023-06-04T06:01:23;23.08;;;8.90;;
31238;SDS011;17871;31.584;74.450;2023-06-04T06:03:53;15.63;;;8.25;;
31238;SDS011;17871;31.584;74.450;2023-06-04T06:06:26;30.70;;;9.52;;
31238;SDS011;17871;31.584;74.450;2023-06-04T06:08:57;29.40;;;10.27;;
31238;SDS011;17871;31.584;74.450;2023-06-04T06:11:26;39.90;;;9.55;;
31238;SDS011;17871;31.584;74.450;2023-06-04T06:13:56;17.45;;;8.48;;
31238;SDS011;17871;31.584;74.450;2023-06-04T06:16:27;25.27;;;10.82;;
31238;SDS011;17871;31.584;74.450;2023-06-04T06:18:56;20.67;;;8.70;;
31238;SDS011;17871;31.584;74.450;2023-06-04T06:21:25;29.70;;;7.57;;
31238;SDS011;17871;31.584;74.450;2023-06-04T06:23:55;21.13;;;5.88;;
31238;SDS011;17871;31.584;74.450;2023-06-04T06:26:25;32.65;;;9.23;;
31238;SDS011;17871;31.584;74.450;2023-06-04T06:28:57;19.70;;;6.63;;
31238;SDS011;17871;31.584;74.450;2023-06-04T06:31:28;20.95;;;6.70;;
31238;SDS011;17871;31.584;74.450;2023-06-04T06:33:58;17.50;;;7.60;;
31238;SDS011;17871;31.584;74.450;2023-06-04T06:36:27;38.10;;;8.15;;
31238;SDS011;17871;31.584;74.450;2023-06-04T06:38:56;28.63;;;8.18;;
31238;SDS011;17871;31.584;74.450;2023-06-04T06:41:25;17.98;;;8.60;;
31238;SDS011;17871;31.584;74.450;2023-06-04T06:43:55;15.75;;;8.77;;
31238;SDS011;17871;31.584;74.450;2023-06-04T06:46:24;27.58;;;8.48;;
31238;SDS011;17871;31.584;74.450;2023-06-04T06:48:53;30.60;;;7.90;;
31238;SDS011;17871;31.584;74.450;2023-06-04T06:51:22;20.05;;;7.40;;
31238;SDS011;17871;31.584;74.450;2023-06-04T06:53:52;26.67;;;7.65;;
31238;SDS011;17871;31.584;74.450;2023-06-04T06:56:21;27.67;;;6.88;;
31238;SDS011;17871;31.584;74.450;2023-06-04T06:58:51;16.73;;;7.03;;
31238;SDS011;17871;31.584;74.450;2023-06-04T07:01:20;35.20;;;6.35;;
31238;SDS011;17871;31.584;74.450;2023-06-04T07:03:49;21.55;;;6.38;;
31238;SDS011;17871;31.584;74.450;2023-06-04T07:06:18;17.17;;;5.85;;
31238;SDS011;17871;31.584;74.450;2023-06-04T07:08:47;14.02;;;5.45;;
31238;SDS011;17871;31.584;74.450;2023-06-04T07:11:17;18.50;;;4.43;;
31238;SDS011;17871;31.584;74.450;2023-06-04T07:13:46;12.52;;;5.70;;
31238;SDS011;17871;31.584;74.450;2023-06-04T07:16:15;15.73;;;5.25;;
31238;SDS011;17871;31.584;74.450;2023-06-04T07:18:48;13.00;;;5.07;;
31238;SDS011;17871;31.584;74.450;2023-06-04T07:21:18;18.70;;;6.03;;
31238;SDS011;17871;31.584;74.450;2023-06-04T07:23:52;15.50;;;5.95;;
31238;SDS011;17871;31.584;74.450;2023-06-04T07:26:21;25.65;;;6.57;;
31238;SDS011;17871;31.584;74.450;2023-06-04T07:28:50;15.98;;;5.75;;
31238;SDS011;17871;31.584;74.450;2023-06-04T07:31:19;17.55;;;5.72;;
31238;SDS011;17871;31.584;74.450;2023-06-04T07:33:48;19.60;;;6.22;;
31238;SDS011;17871;31.584;74.450;2023-06-04T07:36:18;15.90;;;5.72;;
31238;SDS011;17871;31.584;74.450;2023-06-04T07:38:48;19.02;;;4.97;;
31238;SDS011;17871;31.584;74.450;2023-06-04T07:41:18;25.38;;;6.50;;
31238;SDS011;17871;31.584;74.450;2023-06-04T07:43:47;24.75;;;7.60;;
31238;SDS011;17871;31.584;74.450;2023-06-04T07:46:16;20.52;;;5.90;;
31238;SDS011;17871;31.584;74.450;2023-06-04T07:48:48;14.60;;;5.75;;
31238;SDS011;17871;31.584;74.450;2023-06-04T07:51:17;16.80;;;5.35;;
31238;SDS011;17871;31.584;74.450;2023-06-04T07:53:48;11.43;;;5.43;;
31238;SDS011;17871;31.584;74.450;2023-06-04T07:56:17;15.45;;;5.00;;
31238;SDS011;17871;31.584;74.450;2023-06-04T07:58:46;15.02;;;5.15;;
31238;SDS011;17871;31.584;74.450;2023-06-04T08:01:15;13.82;;;4.90;;
31238;SDS011;17871;31.584;74.450;2023-06-04T08:03:45;13.27;;;5.13;;
31238;SDS011;17871;31.584;74.450;2023-06-04T08:06:14;20.67;;;5.18;;
31238;SDS011;17871;31.584;74.450;2023-06-04T08:08:44;18.40;;;6.25;;
31238;SDS011;17871;31.584;74.450;2023-06-04T08:11:14;17.00;;;4.82;;
31238;SDS011;17871;31.584;74.450;2023-06-04T08:13:44;15.93;;;5.35;;
31238;SDS011;17871;31.584;74.450;2023-06-04T08:16:13;17.85;;;6.28;;
31238;SDS011;17871;31.584;74.450;2023-06-04T08:18:42;9.73;;;4.85;;
31238;SDS011;17871;31.584;74.450;2023-06-04T08:21:11;11.20;;;4.85;;
31238;SDS011;17871;31.584;74.450;2023-06-04T08:23:41;15.38;;;5.32;;
31238;SDS011;17871;31.584;74.450;2023-06-04T08:26:10;9.55;;;4.75;;
31238;SDS011;17871;31.584;74.450;2023-06-04T08:28:39;13.63;;;4.45;;
31238;SDS011;17871;31.584;74.450;2023-06-04T08:31:08;16.17;;;4.68;;
31238;SDS011;17871;31.584;74.450;2023-06-04T08:33:37;25.73;;;6.65;;
31238;SDS011;17871;31.584;74.450;2023-06-04T08:36:07;27.38;;;6.15;;
31238;SDS011;17871;31.584;74.450;2023-06-04T08:38:36;14.02;;;4.85;;
31238;SDS011;17871;31.584;74.450;2023-06-04T08:41:09;14.90;;;4.07;;
31238;SDS011;17871;31.584;74.450;2023-06-04T08:43:45;19.77;;;3.90;;
31238;SDS011;17871;31.584;74.450;2023-06-04T08:46:17;14.35;;;4.40;;
31238;SDS011;17871;31.584;74.450;2023-06-04T08:48:48;11.55;;;3.47;;
31238;SDS011;17871;31.584;74.450;2023-06-04T08:51:18;11.88;;;3.50;;
31238;SDS011;17871;31.584;74.450;2023-06-04T08:53:48;18.17;;;3.92;;
31238;SDS011;17871;31.584;74.450;2023-06-04T08:56:22;14.98;;;4.22;;
31238;SDS011;17871;31.584;74.450;2023-06-04T08:58:51;11.23;;;4.13;;
31238;SDS011;17871;31.584;74.450;2023-06-04T09:01:21;20.25;;;4.03;;
31238;SDS011;17871;31.584;74.450;2023-06-04T09:03:51;21.55;;;4.55;;
31238;SDS011;17871;31.584;74.450;2023-06-04T09:06:23;17.70;;;5.60;;
31238;SDS011;17871;31.584;74.450;2023-06-04T09:08:59;12.88;;;6.60;;
31238;SDS011;17871;31.584;74.450;2023-06-04T09:11:36;37.70;;;7.60;;
31238;SDS011;17871;31.584;74.450;2023-06-04T09:14:10;18.52;;;7.95;;
31238;SDS011;17871;31.584;74.450;2023-06-04T09:16:51;15.13;;;6.05;;
31238;SDS011;17871;31.584;74.450;2023-06-04T09:19:22;30.13;;;5.45;;
31238;SDS011;17871;31.584;74.450;2023-06-04T09:21:52;52.33;;;7.22;;
31238;SDS011;17871;31.584;74.450;2023-06-04T09:24:40;39.20;;;6.53;;
31238;SDS011;17871;31.584;74.450;2023-06-04T09:27:14;21.42;;;6.82;;
31238;SDS011;17871;31.584;74.450;2023-06-04T09:29:57;17.92;;;8.00;;
31238;SDS011;17871;31.584;74.450;2023-06-04T09:32:30;9.55;;;6.00;;
31238;SDS011;17871;31.584;74.450;2023-06-04T09:35:10;20.65;;;7.93;;
31238;SDS011;17871;31.584;74.450;2023-06-04T09:37:53;20.17;;;6.80;;
31238;SDS011;17871;31.584;74.450;2023-06-04T09:40:36;14.02;;;4.65;;
31238;SDS011;17871;31.584;74.450;2023-06-04T09:43:06;11.18;;;4.10;;
31238;SDS011;17871;31.584;74.450;2023-06-04T09:45:41;13.50;;;5.68;;
31238;SDS011;17871;31.584;74.450;2023-06-04T09:48:10;31.10;;;6.85;;
31238;SDS011;17871;31.584;74.450;2023-06-04T09:50:51;15.85;;;6.53;;
31238;SDS011;17871;31.584;74.450;2023-06-04T09:53:23;17.52;;;7.07;;
31238;SDS011;17871;31.584;74.450;2023-06-04T09:55:59;15.23;;;7.22;;
31238;SDS011;17871;31.584;74.450;2023-06-04T09:58:32;35.58;;;9.00;;
31238;SDS011;17871;31.584;74.450;2023-06-04T10:01:03;15.75;;;7.82;;
31238;SDS011;17871;31.584;74.450;2023-06-04T10:03:34;16.25;;;6.70;;
31238;SDS011;17871;31.584;74.450;2023-06-04T10:06:05;25.85;;;8.82;;
31238;SDS011;17871;31.584;74.450;2023-06-04T10:08:34;15.77;;;7.40;;
31238;SDS011;17871;31.584;74.450;2023-06-04T10:11:05;28.00;;;7.72;;
31238;SDS011;17871;31.584;74.450;2023-06-04T10:13:38;11.73;;;6.10;;
31238;SDS011;17871;31.584;74.450;2023-06-04T10:16:15;12.25;;;7.50;;
31238;SDS011;17871;31.584;74.450;2023-06-04T10:18:59;18.67;;;6.03;;
31238;SDS011;17871;31.584;74.450;2023-06-04T10:24:17;28.77;;;7.72;;
31238;SDS011;17871;31.584;74.450;2023-06-04T10:26:49;16.23;;;7.70;;
31238;SDS011;17871;31.584;74.450;2023-06-04T10:29:23;14.60;;;6.60;;
31238;SDS011;17871;31.584;74.450;2023-06-04T10:31:54;43.58;;;21.05;;
31238;SDS011;17871;31.584;74.450;2023-06-04T10:34:26;117.90;;;56.10;;
31238;SDS011;17871;31.584;74.450;2023-06-04T10:36:55;49.67;;;23.92;;
31238;SDS011;17871;31.584;74.450;2023-06-04T10:39:25;20.00;;;7.72;;
31238;SDS011;17871;31.584;74.450;2023-06-04T10:41:59;10.90;;;6.50;;
31238;SDS011;17871;31.584;74.450;2023-06-04T10:44:44;24.15;;;9.57;;
31238;SDS011;17871;31.584;74.450;2023-06-04T10:47:26;21.73;;;7.55;;
31238;SDS011;17871;31.584;74.450;2023-06-04T10:50:09;16.98;;;5.68;;
31238;SDS011;17871;31.584;74.450;2023-06-04T10:53:00;25.77;;;7.70;;
31238;SDS011;17871;31.584;74.450;2023-06-04T10:55:31;23.33;;;9.45;;
31238;SDS011;17871;31.584;74.450;2023-06-04T10:58:11;20.65;;;8.48;;
31238;SDS011;17871;31.584;74.450;2023-06-04T11:00:43;20.02;;;8.88;;
31238;SDS011;17871;31.584;74.450;2023-06-04T11:03:34;36.60;;;10.55;;
31238;SDS011;17871;31.584;74.450;2023-06-04T11:06:16;30.92;;;9.98;;
31238;SDS011;17871;31.584;74.450;2023-06-04T11:08:46;18.67;;;9.20;;
31238;SDS011;17871;31.584;74.450;2023-06-04T11:11:16;17.38;;;7.20;;
31238;SDS011;17871;31.584;74.450;2023-06-04T11:13:45;22.20;;;6.88;;
31238;SDS011;17871;31.584;74.450;2023-06-04T11:16:15;28.70;;;7.53;;
31238;SDS011;17871;31.584;74.450;2023-06-04T11:18:55;18.58;;;8.30;;
31238;SDS011;17871;31.584;74.450;2023-06-04T11:21:25;26.50;;;7.50;;
31238;SDS011;17871;31.584;74.450;2023-06-04T11:23:57;25.83;;;7.68;;
31238;SDS011;17871;31.584;74.450;2023-06-04T11:29:11;19.92;;;7.63;;
31238;SDS011;17871;31.584;74.450;2023-06-04T11:31:44;28.63;;;8.63;;
31238;SDS011;17871;31.584;74.450;2023-06-04T11:34:24;28.33;;;10.07;;
31238;SDS011;17871;31.584;74.450;2023-06-04T11:36:55;24.88;;;9.07;;
31238;SDS011;17871;31.584;74.450;2023-06-04T11:39:33;24.92;;;9.63;;
31238;SDS011;17871;31.584;74.450;2023-06-04T11:42:06;31.08;;;8.73;;
31238;SDS011;17871;31.584;74.450;2023-06-04T11:44:36;21.08;;;8.82;;
31238;SDS011;17871;31.584;74.450;2023-06-04T11:47:07;54.20;;;9.30;;
31238;SDS011;17871;31.584;74.450;2023-06-04T11:49:37;44.92;;;14.38;;
31238;SDS011;17871;31.584;74.450;2023-06-04T11:52:06;14.23;;;7.90;;
31238;SDS011;17871;31.584;74.450;2023-06-04T11:54:36;19.83;;;7.97;;
31238;SDS011;17871;31.584;74.450;2023-06-04T11:57:06;25.35;;;9.02;;
31238;SDS011;17871;31.584;74.450;2023-06-04T11:59:35;18.83;;;8.63;;
31238;SDS011;17871;31.584;74.450;2023-06-04T12:02:05;17.75;;;8.60;;
31238;SDS011;17871;31.584;74.450;2023-06-04T12:04:36;27.52;;;10.02;;
31238;SDS011;17871;31.584;74.450;2023-06-04T12:07:05;21.70;;;8.60;;
31238;SDS011;17871;31.584;74.450;2023-06-04T12:09:37;17.30;;;8.77;;
31238;SDS011;17871;31.584;74.450;2023-06-04T12:12:07;30.40;;;9.85;;
31238;SDS011;17871;31.584;74.450;2023-06-04T12:14:37;15.10;;;7.82;;
31238;SDS011;17871;31.584;74.450;2023-06-04T12:17:07;27.60;;;9.32;;
31238;SDS011;17871;31.584;74.450;2023-06-04T12:19:46;25.13;;;8.82;;
31238;SDS011;17871;31.584;74.450;2023-06-04T12:22:17;31.42;;;8.80;;
31238;SDS011;17871;31.584;74.450;2023-06-04T12:24:50;39.55;;;11.18;;
31238;SDS011;17871;31.584;74.450;2023-06-04T12:27:23;25.27;;;9.82;;
31238;SDS011;17871;31.584;74.450;2023-06-04T12:30:01;22.13;;;9.50;;
31238;SDS011;17871;31.584;74.450;2023-06-04T12:32:34;35.95;;;11.10;;
31238;SDS011;17871;31.584;74.450;2023-06-04T12:38:29;23.98;;;10.02;;
31238;SDS011;17871;31.584;74.450;2023-06-04T12:40:58;22.08;;;10.05;;
31238;SDS011;17871;31.584;74.450;2023-06-04T12:43:28;24.67;;;11.05;;
31238;SDS011;17871;31.584;74.450;2023-06-04T12:46:01;39.83;;;11.45;;
31238;SDS011;17871;31.584;74.450;2023-06-04T12:48:30;21.35;;;9.73;;
31238;SDS011;17871;31.584;74.450;2023-06-04T12:51:01;25.60;;;10.80;;
31238;SDS011;17871;31.584;74.450;2023-06-04T12:53:30;21.73;;;10.15;;
31238;SDS011;17871;31.584;74.450;2023-06-04T12:55:59;25.33;;;10.75;;
31238;SDS011;17871;31.584;74.450;2023-06-04T12:58:29;27.63;;;10.65;;
31238;SDS011;17871;31.584;74.450;2023-06-04T13:00:58;27.98;;;11.05;;
31238;SDS011;17871;31.584;74.450;2023-06-04T13:03:29;28.75;;;10.63;;
31238;SDS011;17871;31.584;74.450;2023-06-04T13:05:59;26.38;;;11.88;;
31238;SDS011;17871;31.584;74.450;2023-06-04T13:08:28;26.98;;;11.02;;
31238;SDS011;17871;31.584;74.450;2023-06-04T13:10:57;31.33;;;10.90;;
31238;SDS011;17871;31.584;74.450;2023-06-04T13:13:26;42.83;;;11.52;;
31238;SDS011;17871;31.584;74.450;2023-06-04T13:15:56;25.17;;;10.73;;
31238;SDS011;17871;31.584;74.450;2023-06-04T13:18:25;24.08;;;10.93;;
31238;SDS011;17871;31.584;74.450;2023-06-04T13:20:55;31.27;;;10.70;;
31238;SDS011;17871;31.584;74.450;2023-06-04T13:23:24;31.15;;;9.63;;
31238;SDS011;17871;31.584;74.450;2023-06-04T13:26:13;23.20;;;11.07;;
31238;SDS011;17871;31.584;74.450;2023-06-04T13:28:43;27.17;;;10.27;;
31238;SDS011;17871;31.584;74.450;2023-06-04T13:31:12;51.90;;;10.65;;
31238;SDS011;17871;31.584;74.450;2023-06-04T13:33:41;45.90;;;11.43;;
31238;SDS011;17871;31.584;74.450;2023-06-04T13:36:11;36.97;;;12.40;;
31238;SDS011;17871;31.584;74.450;2023-06-04T13:38:40;44.70;;;11.90;;
31238;SDS011;17871;31.584;74.450;2023-06-04T13:41:10;31.08;;;12.10;;
31238;SDS011;17871;31.584;74.450;2023-06-04T13:43:39;47.53;;;12.30;;
31238;SDS011;17871;31.584;74.450;2023-06-04T13:46:09;38.45;;;12.25;;
31238;SDS011;17871;31.584;74.450;2023-06-04T13:48:38;29.65;;;11.13;;
31238;SDS011;17871;31.584;74.450;2023-06-04T13:51:07;29.00;;;11.40;;
31238;SDS011;17871;31.584;74.450;2023-06-04T13:53:36;28.90;;;10.65;;
31238;SDS011;17871;31.584;74.450;2023-06-04T13:56:06;42.00;;;10.57;;
31238;SDS011;17871;31.584;74.450;2023-06-04T13:58:35;40.25;;;10.00;;
31238;SDS011;17871;31.584;74.450;2023-06-04T14:01:04;37.15;;;10.20;;
31238;SDS011;17871;31.584;74.450;2023-06-04T14:03:34;33.58;;;11.88;;
31238;SDS011;17871;31.584;74.450;2023-06-04T14:06:03;35.33;;;11.48;;
31238;SDS011;17871;31.584;74.450;2023-06-04T14:08:33;35.03;;;10.45;;
31238;SDS011;17871;31.584;74.450;2023-06-04T14:11:03;27.77;;;10.45;;
31238;SDS011;17871;31.584;74.450;2023-06-04T14:13:32;35.38;;;11.30;;
31238;SDS011;17871;31.584;74.450;2023-06-04T14:16:01;35.22;;;10.75;;
31238;SDS011;17871;31.584;74.450;2023-06-04T14:18:31;39.50;;;11.18;;
31238;SDS011;17871;31.584;74.450;2023-06-04T14:20:59;35.85;;;10.85;;
31238;SDS011;17871;31.584;74.450;2023-06-04T14:23:29;45.50;;;13.48;;
31238;SDS011;17871;31.584;74.450;2023-06-04T14:25:58;52.05;;;14.90;;
31238;SDS011;17871;31.584;74.450;2023-06-04T14:28:27;38.15;;;12.13;;
31238;SDS011;17871;31.584;74.450;2023-06-04T14:30:56;25.08;;;9.57;;
31238;SDS011;17871;31.584;74.450;2023-06-04T14:33:27;25.55;;;9.32;;
31238;SDS011;17871;31.584;74.450;2023-06-04T14:35:56;29.55;;;11.00;;
31238;SDS011;17871;31.584;74.450;2023-06-04T14:38:25;36.75;;;10.35;;
31238;SDS011;17871;31.584;74.450;2023-06-04T14:40:54;35.90;;;11.77;;
31238;SDS011;17871;31.584;74.450;2023-06-04T14:43:24;35.05;;;11.35;;
31238;SDS011;17871;31.584;74.450;2023-06-04T14:45:54;39.80;;;11.60;;
31238;SDS011;17871;31.584;74.450;2023-06-04T14:48:24;51.22;;;12.90;;
31238;SDS011;17871;31.584;74.450;2023-06-04T14:50:55;36.10;;;14.00;;
31238;SDS011;17871;31.584;74.450;2023-06-04T14:53:25;56.67;;;21.17;;
31238;SDS011;17871;31.584;74.450;2023-06-04T14:55:54;51.45;;;15.98;;
31238;SDS011;17871;31.584;74.450;2023-06-04T14:58:24;76.07;;;23.98;;
31238;SDS011;17871;31.584;74.450;2023-06-04T15:04:34;69.90;;;25.92;;
31238;SDS011;17871;31.584;74.450;2023-06-04T15:07:05;61.83;;;22.50;;
31238;SDS011;17871;31.584;74.450;2023-06-04T15:09:34;77.70;;;25.20;;
31238;SDS011;17871;31.584;74.450;2023-06-04T15:12:04;84.47;;;26.52;;
31238;SDS011;17871;31.584;74.450;2023-06-04T15:14:33;67.40;;;26.23;;